sensor_id;sensor_type;location;lat;lon;timestamp;temperature;humidity
22173;DHT22;11252;50.596;17.648;2023-02-03T00:02:03;0.70;92.20
22173;DHT22;11252;50.596;17.648;2023-02-03T00:04:30;0.70;92.20
22173;DHT22;11252;50.596;17.648;2023-02-03T00:06:58;0.60;92.20
22173;DHT22;11252;50.596;17.648;2023-02-03T00:09:25;0.60;92.20
22173;DHT22;11252;50.596;17.648;2023-02-03T00:11:53;0.50;92.20
22173;DHT22;11252;50.596;17.648;2023-02-03T00:14:20;0.50;92.20
22173;DHT22;11252;50.596;17.648;2023-02-03T00:16:47;0.50;92.20
22173;DHT22;11252;50.596;17.648;2023-02-03T00:19:15;0.50;92.20
22173;DHT22;11252;50.596;17.648;2023-02-03T00:21:43;0.60;92.20
22173;DHT22;11252;50.596;17.648;2023-02-03T00:24:11;0.60;92.20
22173;DHT22;11252;50.596;17.648;2023-02-03T00:26:42;0.50;92.20
22173;DHT22;11252;50.596;17.648;2023-02-03T00:29:09;0.40;92.20
22173;DHT22;11252;50.596;17.648;2023-02-03T00:31:37;0.30;92.20
22173;DHT22;11252;50.596;17.648;2023-02-03T00:34:05;0.30;92.20
22173;DHT22;11252;50.596;17.648;2023-02-03T00:36:32;0.20;92.20
22173;DHT22;11252;50.596;17.648;2023-02-03T00:39:00;0.20;92.20
22173;DHT22;11252;50.596;17.648;2023-02-03T00:41:29;0.10;92.20
22173;DHT22;11252;50.596;17.648;2023-02-03T00:43:57;0.00;92.20
22173;DHT22;11252;50.596;17.648;2023-02-03T00:46:24;0.00;92.20
22173;DHT22;11252;50.596;17.648;2023-02-03T00:48:51;0.00;92.20
22173;DHT22;11252;50.596;17.648;2023-02-03T00:51:19;0.00;92.20
22173;DHT22;11252;50.596;17.648;2023-02-03T00:53:47;-0.10;92.20
22173;DHT22;11252;50.596;17.648;2023-02-03T00:56:15;-0.20;92.20
22173;DHT22;11252;50.596;17.648;2023-02-03T00:58:42;-0.20;92.20
22173;DHT22;11252;50.596;17.648;2023-02-03T01:01:09;-0.30;92.20
22173;DHT22;11252;50.596;17.648;2023-02-03T01:03:37;-0.30;92.20
22173;DHT22;11252;50.596;17.648;2023-02-03T01:08:36;-0.20;92.20
22173;DHT22;11252;50.596;17.648;2023-02-03T01:11:11;-0.30;92.20
22173;DHT22;11252;50.596;17.648;2023-02-03T01:13:39;-0.30;92.20
22173;DHT22;11252;50.596;17.648;2023-02-03T01:16:10;-0.20;92.20
22173;DHT22;11252;50.596;17.648;2023-02-03T01:18:38;-0.30;92.20
22173;DHT22;11252;50.596;17.648;2023-02-03T01:21:08;-0.20;92.20
22173;DHT22;11252;50.596;17.648;2023-02-03T01:23:36;-0.30;92.20
22173;DHT22;11252;50.596;17.648;2023-02-03T01:26:06;-0.30;92.20
22173;DHT22;11252;50.596;17.648;2023-02-03T01:28:34;-0.40;92.20
22173;DHT22;11252;50.596;17.648;2023-02-03T01:31:18;-0.40;92.20
22173;DHT22;11252;50.596;17.648;2023-02-03T01:33:46;-0.50;92.20
22173;DHT22;11252;50.596;17.648;2023-02-03T01:36:16;-0.40;92.20
22173;DHT22;11252;50.596;17.648;2023-02-03T01:38:44;-0.50;92.20
22173;DHT22;11252;50.596;17.648;2023-02-03T01:41:17;-0.50;92.20
22173;DHT22;11252;50.596;17.648;2023-02-03T01:43:48;-0.50;92.20
22173;DHT22;11252;50.596;17.648;2023-02-03T01:49:11;-0.50;92.20
22173;DHT22;11252;50.596;17.648;2023-02-03T01:51:42;-0.60;92.20
22173;DHT22;11252;50.596;17.648;2023-02-03T01:54:23;-0.70;92.20
22173;DHT22;11252;50.596;17.648;2023-02-03T01:57:03;-0.70;92.20
22173;DHT22;11252;50.596;17.648;2023-02-03T01:59:34;-0.70;92.20
22173;DHT22;11252;50.596;17.648;2023-02-03T02:02:03;-0.70;92.20
22173;DHT22;11252;50.596;17.648;2023-02-03T02:04:42;-0.80;92.20
22173;DHT22;11252;50.596;17.648;2023-02-03T02:07:13;-0.80;92.20
22173;DHT22;11252;50.596;17.648;2023-02-03T02:09:42;-0.90;92.20
22173;DHT22;11252;50.596;17.648;2023-02-03T02:12:10;-0.90;92.20
22173;DHT22;11252;50.596;17.648;2023-02-03T02:14:38;-0.90;92.20
22173;DHT22;11252;50.596;17.648;2023-02-03T02:31:42;-0.90;92.20
22173;DHT22;11252;50.596;17.648;2023-02-03T02:34:21;-0.90;92.20
22173;DHT22;11252;50.596;17.648;2023-02-03T02:37:29;-0.90;92.20
22173;DHT22;11252;50.596;17.648;2023-02-03T02:40:18;-0.80;92.20
22173;DHT22;11252;50.596;17.648;2023-02-03T02:42:51;-0.90;92.20
22173;DHT22;11252;50.596;17.648;2023-02-03T02:45:25;-0.80;92.20
22173;DHT22;11252;50.596;17.648;2023-02-03T02:48:01;-0.80;92.20
22173;DHT22;11252;50.596;17.648;2023-02-03T02:50:36;-0.80;92.20
22173;DHT22;11252;50.596;17.648;2023-02-03T02:53:06;-0.90;92.20
22173;DHT22;11252;50.596;17.648;2023-02-03T02:55:36;-0.90;92.20
22173;DHT22;11252;50.596;17.648;2023-02-03T02:58:07;-0.80;92.20
22173;DHT22;11252;50.596;17.648;2023-02-03T03:00:38;-0.90;92.20
22173;DHT22;11252;50.596;17.648;2023-02-03T03:03:12;-0.80;92.20
22173;DHT22;11252;50.596;17.648;2023-02-03T03:05:43;-0.80;92.20
22173;DHT22;11252;50.596;17.648;2023-02-03T03:08:11;-0.80;92.20
22173;DHT22;11252;50.596;17.648;2023-02-03T03:10:41;-0.80;92.20
22173;DHT22;11252;50.596;17.648;2023-02-03T03:13:13;-0.80;92.20
22173;DHT22;11252;50.596;17.648;2023-02-03T03:15:43;-0.80;92.20
22173;DHT22;11252;50.596;17.648;2023-02-03T03:18:30;-0.80;92.20
22173;DHT22;11252;50.596;17.648;2023-02-03T03:21:02;-0.70;92.20
22173;DHT22;11252;50.596;17.648;2023-02-03T03:23:41;-0.70;92.20
22173;DHT22;11252;50.596;17.648;2023-02-03T03:26:24;-0.70;92.20
22173;DHT22;11252;50.596;17.648;2023-02-03T03:28:59;-0.70;92.20
22173;DHT22;11252;50.596;17.648;2023-02-03T03:31:29;-0.70;92.20
22173;DHT22;11252;50.596;17.648;2023-02-03T03:33:57;-0.60;92.20
22173;DHT22;11252;50.596;17.648;2023-02-03T03:36:32;-0.70;92.20
22173;DHT22;11252;50.596;17.648;2023-02-03T03:39:21;-0.70;92.20
22173;DHT22;11252;50.596;17.648;2023-02-03T03:45:12;-0.70;92.20
22173;DHT22;11252;50.596;17.648;2023-02-03T03:47:59;-0.70;92.20
22173;DHT22;11252;50.596;17.648;2023-02-03T03:50:32;-0.70;92.20
22173;DHT22;11252;50.596;17.648;2023-02-03T03:53:01;-0.70;92.20
22173;DHT22;11252;50.596;17.648;2023-02-03T03:55:32;-0.70;92.20
22173;DHT22;11252;50.596;17.648;2023-02-03T03:58:10;-0.60;92.20
22173;DHT22;11252;50.596;17.648;2023-02-03T04:00:39;-0.60;92.20
22173;DHT22;11252;50.596;17.648;2023-02-03T04:03:20;-0.60;92.20
22173;DHT22;11252;50.596;17.648;2023-02-03T04:05:49;-0.60;92.20
22173;DHT22;11252;50.596;17.648;2023-02-03T04:08:16;-0.50;92.20
22173;DHT22;11252;50.596;17.648;2023-02-03T04:10:44;-0.50;92.20
22173;DHT22;11252;50.596;17.648;2023-02-03T04:13:11;-0.50;92.20
22173;DHT22;11252;50.596;17.648;2023-02-03T04:15:39;-0.50;92.20
22173;DHT22;11252;50.596;17.648;2023-02-03T04:18:06;-0.50;92.20
22173;DHT22;11252;50.596;17.648;2023-02-03T04:20:33;-0.50;92.20
22173;DHT22;11252;50.596;17.648;2023-02-03T04:23:00;-0.50;92.20
22173;DHT22;11252;50.596;17.648;2023-02-03T04:25:28;-0.40;92.20
22173;DHT22;11252;50.596;17.648;2023-02-03T04:27:56;-0.40;92.20
22173;DHT22;11252;50.596;17.648;2023-02-03T04:30:23;-0.50;92.20
22173;DHT22;11252;50.596;17.648;2023-02-03T04:32:50;-0.50;92.20
22173;DHT22;11252;50.596;17.648;2023-02-03T04:35:18;-0.50;92.20
22173;DHT22;11252;50.596;17.648;2023-02-03T04:37:45;-0.50;92.20
22173;DHT22;11252;50.596;17.648;2023-02-03T04:40:13;-0.50;92.20
22173;DHT22;11252;50.596;17.648;2023-02-03T04:42:40;-0.40;92.20
22173;DHT22;11252;50.596;17.648;2023-02-03T04:45:10;-0.40;92.20
22173;DHT22;11252;50.596;17.648;2023-02-03T04:47:38;-0.40;92.20
22173;DHT22;11252;50.596;17.648;2023-02-03T04:50:06;-0.30;92.20
22173;DHT22;11252;50.596;17.648;2023-02-03T04:52:34;-0.20;92.20
22173;DHT22;11252;50.596;17.648;2023-02-03T04:55:01;-0.20;92.20
22173;DHT22;11252;50.596;17.648;2023-02-03T04:57:30;-0.30;92.20
22173;DHT22;11252;50.596;17.648;2023-02-03T04:59:57;-0.20;92.20
22173;DHT22;11252;50.596;17.648;2023-02-03T05:02:25;-0.20;92.20
22173;DHT22;11252;50.596;17.648;2023-02-03T05:04:55;-0.20;92.20
22173;DHT22;11252;50.596;17.648;2023-02-03T05:07:22;-0.20;92.20
22173;DHT22;11252;50.596;17.648;2023-02-03T05:09:49;-0.20;92.20
22173;DHT22;11252;50.596;17.648;2023-02-03T05:12:16;-0.20;92.20
22173;DHT22;11252;50.596;17.648;2023-02-03T05:14:44;-0.20;92.20
22173;DHT22;11252;50.596;17.648;2023-02-03T05:17:11;-0.20;92.20
22173;DHT22;11252;50.596;17.648;2023-02-03T05:19:38;-0.10;92.20
22173;DHT22;11252;50.596;17.648;2023-02-03T05:22:06;-0.20;92.20
22173;DHT22;11252;50.596;17.648;2023-02-03T05:24:33;-0.20;92.20
22173;DHT22;11252;50.596;17.648;2023-02-03T05:27:00;-0.10;92.20
22173;DHT22;11252;50.596;17.648;2023-02-03T05:29:27;-0.10;92.20
22173;DHT22;11252;50.596;17.648;2023-02-03T05:31:54;-0.10;92.20
22173;DHT22;11252;50.596;17.648;2023-02-03T05:34:22;-0.10;92.20
22173;DHT22;11252;50.596;17.648;2023-02-03T05:36:49;-0.10;92.20
22173;DHT22;11252;50.596;17.648;2023-02-03T05:39:16;-0.10;92.20
22173;DHT22;11252;50.596;17.648;2023-02-03T05:41:43;-0.10;92.20
22173;DHT22;11252;50.596;17.648;2023-02-03T05:44:27;-0.10;92.20
22173;DHT22;11252;50.596;17.648;2023-02-03T05:46:57;-0.10;92.20
22173;DHT22;11252;50.596;17.648;2023-02-03T05:49:24;-0.10;92.20
22173;DHT22;11252;50.596;17.648;2023-02-03T05:51:53;-0.10;92.20
22173;DHT22;11252;50.596;17.648;2023-02-03T05:54:22;-0.10;92.20
22173;DHT22;11252;50.596;17.648;2023-02-03T05:56:50;-0.10;92.20
22173;DHT22;11252;50.596;17.648;2023-02-03T05:59:17;-0.10;92.20
22173;DHT22;11252;50.596;17.648;2023-02-03T06:01:44;-0.10;92.20
22173;DHT22;11252;50.596;17.648;2023-02-03T06:04:11;-0.10;92.20
22173;DHT22;11252;50.596;17.648;2023-02-03T06:06:39;-0.10;92.20
22173;DHT22;11252;50.596;17.648;2023-02-03T06:09:07;-0.10;92.20
22173;DHT22;11252;50.596;17.648;2023-02-03T06:11:35;-0.10;92.20
22173;DHT22;11252;50.596;17.648;2023-02-03T06:14:03;-0.10;92.20
22173;DHT22;11252;50.596;17.648;2023-02-03T06:16:30;-0.10;92.20
22173;DHT22;11252;50.596;17.648;2023-02-03T06:18:58;-0.10;92.20
22173;DHT22;11252;50.596;17.648;2023-02-03T06:21:26;0.00;92.20
22173;DHT22;11252;50.596;17.648;2023-02-03T06:23:54;0.00;92.20
22173;DHT22;11252;50.596;17.648;2023-02-03T06:26:23;0.00;92.20
22173;DHT22;11252;50.596;17.648;2023-02-03T06:28:51;0.00;92.20
22173;DHT22;11252;50.596;17.648;2023-02-03T06:31:18;0.00;92.20
22173;DHT22;11252;50.596;17.648;2023-02-03T06:33:45;0.00;92.20
22173;DHT22;11252;50.596;17.648;2023-02-03T06:36:12;0.00;92.20
22173;DHT22;11252;50.596;17.648;2023-02-03T06:38:39;0.00;92.20
22173;DHT22;11252;50.596;17.648;2023-02-03T06:41:06;0.00;92.20
22173;DHT22;11252;50.596;17.648;2023-02-03T06:43:34;-0.10;92.20
22173;DHT22;11252;50.596;17.648;2023-02-03T06:46:02;-0.10;92.20
22173;DHT22;11252;50.596;17.648;2023-02-03T06:48:29;-0.10;92.20
22173;DHT22;11252;50.596;17.648;2023-02-03T06:50:56;-0.10;92.20
22173;DHT22;11252;50.596;17.648;2023-02-03T06:53:24;-0.20;92.20
22173;DHT22;11252;50.596;17.648;2023-02-03T06:55:51;-0.10;92.20
22173;DHT22;11252;50.596;17.648;2023-02-03T06:58:18;-0.10;92.20
22173;DHT22;11252;50.596;17.648;2023-02-03T07:00:46;-0.10;92.20
22173;DHT22;11252;50.596;17.648;2023-02-03T07:03:13;-0.20;92.20
22173;DHT22;11252;50.596;17.648;2023-02-03T07:05:40;-0.10;92.20
22173;DHT22;11252;50.596;17.648;2023-02-03T07:08:07;-0.10;92.20
22173;DHT22;11252;50.596;17.648;2023-02-03T07:10:34;-0.10;92.20
22173;DHT22;11252;50.596;17.648;2023-02-03T07:13:05;-0.20;92.20
22173;DHT22;11252;50.596;17.648;2023-02-03T07:15:33;-0.10;92.20
22173;DHT22;11252;50.596;17.648;2023-02-03T07:18:00;-0.10;92.20
22173;DHT22;11252;50.596;17.648;2023-02-03T07:20:28;-0.10;92.20
22173;DHT22;11252;50.596;17.648;2023-02-03T07:22:56;-0.10;92.20
22173;DHT22;11252;50.596;17.648;2023-02-03T07:25:24;0.00;92.20
22173;DHT22;11252;50.596;17.648;2023-02-03T07:27:52;0.00;92.20
22173;DHT22;11252;50.596;17.648;2023-02-03T07:30:20;0.00;92.20
22173;DHT22;11252;50.596;17.648;2023-02-03T07:32:48;0.00;92.20
22173;DHT22;11252;50.596;17.648;2023-02-03T07:35:17;0.10;92.20
22173;DHT22;11252;50.596;17.648;2023-02-03T07:37:44;0.10;92.20
22173;DHT22;11252;50.596;17.648;2023-02-03T07:40:12;0.10;92.20
22173;DHT22;11252;50.596;17.648;2023-02-03T07:42:41;0.10;92.20
22173;DHT22;11252;50.596;17.648;2023-02-03T07:45:10;0.10;92.20
22173;DHT22;11252;50.596;17.648;2023-02-03T07:47:38;0.10;92.20
22173;DHT22;11252;50.596;17.648;2023-02-03T07:50:06;0.10;92.20
22173;DHT22;11252;50.596;17.648;2023-02-03T07:52:33;0.20;92.20
22173;DHT22;11252;50.596;17.648;2023-02-03T07:55:00;0.20;92.20
22173;DHT22;11252;50.596;17.648;2023-02-03T07:57:28;0.20;92.20
22173;DHT22;11252;50.596;17.648;2023-02-03T07:59:55;0.30;92.20
22173;DHT22;11252;50.596;17.648;2023-02-03T08:02:22;0.30;92.20
22173;DHT22;11252;50.596;17.648;2023-02-03T08:04:49;0.30;92.20
22173;DHT22;11252;50.596;17.648;2023-02-03T08:07:17;0.30;92.20
22173;DHT22;11252;50.596;17.648;2023-02-03T08:09:44;0.40;92.20
22173;DHT22;11252;50.596;17.648;2023-02-03T08:12:11;0.40;92.20
22173;DHT22;11252;50.596;17.648;2023-02-03T08:14:38;0.50;92.20
22173;DHT22;11252;50.596;17.648;2023-02-03T08:17:05;0.40;92.20
22173;DHT22;11252;50.596;17.648;2023-02-03T08:19:33;0.40;92.20
22173;DHT22;11252;50.596;17.648;2023-02-03T08:22:01;0.40;92.20
22173;DHT22;11252;50.596;17.648;2023-02-03T08:24:28;0.50;92.20
22173;DHT22;11252;50.596;17.648;2023-02-03T08:26:57;0.50;92.20
22173;DHT22;11252;50.596;17.648;2023-02-03T08:29:25;0.50;92.20
22173;DHT22;11252;50.596;17.648;2023-02-03T08:31:52;0.60;92.20
22173;DHT22;11252;50.596;17.648;2023-02-03T08:34:21;0.60;92.20
22173;DHT22;11252;50.596;17.648;2023-02-03T08:36:48;0.60;92.20
22173;DHT22;11252;50.596;17.648;2023-02-03T08:39:15;0.70;92.20
22173;DHT22;11252;50.596;17.648;2023-02-03T08:41:42;0.70;92.20
22173;DHT22;11252;50.596;17.648;2023-02-03T08:44:09;0.70;92.20
22173;DHT22;11252;50.596;17.648;2023-02-03T08:46:36;0.70;92.20
22173;DHT22;11252;50.596;17.648;2023-02-03T08:49:09;0.70;92.20
22173;DHT22;11252;50.596;17.648;2023-02-03T08:51:37;0.80;92.20
22173;DHT22;11252;50.596;17.648;2023-02-03T08:54:04;0.80;92.20
22173;DHT22;11252;50.596;17.648;2023-02-03T08:56:32;0.90;92.20
22173;DHT22;11252;50.596;17.648;2023-02-03T08:59:00;0.90;92.20
22173;DHT22;11252;50.596;17.648;2023-02-03T09:01:27;0.90;92.20
22173;DHT22;11252;50.596;17.648;2023-02-03T09:03:55;0.90;92.20
22173;DHT22;11252;50.596;17.648;2023-02-03T09:06:23;0.90;92.20
22173;DHT22;11252;50.596;17.648;2023-02-03T09:08:52;0.90;92.20
22173;DHT22;11252;50.596;17.648;2023-02-03T09:11:19;0.90;92.20
22173;DHT22;11252;50.596;17.648;2023-02-03T09:13:46;1.00;92.20
22173;DHT22;11252;50.596;17.648;2023-02-03T09:16:16;0.90;92.20
22173;DHT22;11252;50.596;17.648;2023-02-03T09:18:45;0.90;92.20
22173;DHT22;11252;50.596;17.648;2023-02-03T09:21:13;0.90;92.20
22173;DHT22;11252;50.596;17.648;2023-02-03T09:24:01;0.90;92.20
22173;DHT22;11252;50.596;17.648;2023-02-03T09:26:28;0.90;92.20
22173;DHT22;11252;50.596;17.648;2023-02-03T09:28:56;0.90;92.20
22173;DHT22;11252;50.596;17.648;2023-02-03T09:31:23;1.00;92.20
22173;DHT22;11252;50.596;17.648;2023-02-03T09:33:50;1.00;92.20
22173;DHT22;11252;50.596;17.648;2023-02-03T09:36:17;1.00;92.20
22173;DHT22;11252;50.596;17.648;2023-02-03T09:38:45;1.00;92.20
22173;DHT22;11252;50.596;17.648;2023-02-03T09:41:18;1.10;92.20
22173;DHT22;11252;50.596;17.648;2023-02-03T09:44:00;1.20;92.20
22173;DHT22;11252;50.596;17.648;2023-02-03T09:46:34;1.20;92.20
22173;DHT22;11252;50.596;17.648;2023-02-03T09:52:19;1.40;92.20
22173;DHT22;11252;50.596;17.648;2023-02-03T09:54:49;1.30;92.20
22173;DHT22;11252;50.596;17.648;2023-02-03T09:57:23;1.40;92.20
22173;DHT22;11252;50.596;17.648;2023-02-03T09:59:53;1.40;92.20
22173;DHT22;11252;50.596;17.648;2023-02-03T10:05:21;1.40;92.20
22173;DHT22;11252;50.596;17.648;2023-02-03T10:08:13;1.50;92.20
22173;DHT22;11252;50.596;17.648;2023-02-03T10:11:21;1.50;92.20
22173;DHT22;11252;50.596;17.648;2023-02-03T10:13:52;1.60;92.20
22173;DHT22;11252;50.596;17.648;2023-02-03T10:19:10;1.60;92.20
22173;DHT22;11252;50.596;17.648;2023-02-03T10:21:46;1.60;92.20
22173;DHT22;11252;50.596;17.648;2023-02-03T10:24:20;1.70;92.20
22173;DHT22;11252;50.596;17.648;2023-02-03T10:26:48;1.70;92.20
22173;DHT22;11252;50.596;17.648;2023-02-03T10:29:37;1.70;92.20
22173;DHT22;11252;50.596;17.648;2023-02-03T10:32:12;1.70;92.20
22173;DHT22;11252;50.596;17.648;2023-02-03T10:34:41;1.70;92.20
22173;DHT22;11252;50.596;17.648;2023-02-03T10:37:27;1.80;92.20
22173;DHT22;11252;50.596;17.648;2023-02-03T10:39:56;1.70;92.20
22173;DHT22;11252;50.596;17.648;2023-02-03T10:42:27;1.80;92.20
22173;DHT22;11252;50.596;17.648;2023-02-03T10:45:15;1.80;92.20
22173;DHT22;11252;50.596;17.648;2023-02-03T10:47:56;1.80;92.20
22173;DHT22;11252;50.596;17.648;2023-02-03T10:50:26;1.80;92.20
22173;DHT22;11252;50.596;17.648;2023-02-03T10:53:33;1.90;92.20
22173;DHT22;11252;50.596;17.648;2023-02-03T10:56:06;1.90;92.20
22173;DHT22;11252;50.596;17.648;2023-02-03T10:58:37;1.80;92.20
22173;DHT22;11252;50.596;17.648;2023-02-03T11:03:34;1.90;92.20
22173;DHT22;11252;50.596;17.648;2023-02-03T11:06:08;2.00;92.20
22173;DHT22;11252;50.596;17.648;2023-02-03T11:08:44;2.00;92.20
22173;DHT22;11252;50.596;17.648;2023-02-03T11:11:31;2.10;92.20
22173;DHT22;11252;50.596;17.648;2023-02-03T11:16:33;2.10;92.20
22173;DHT22;11252;50.596;17.648;2023-02-03T11:21:43;2.10;92.20
22173;DHT22;11252;50.596;17.648;2023-02-03T11:24:30;2.20;92.20
22173;DHT22;11252;50.596;17.648;2023-02-03T11:27:19;2.30;92.20
22173;DHT22;11252;50.596;17.648;2023-02-03T11:29:53;2.50;92.20
22173;DHT22;11252;50.596;17.648;2023-02-03T11:32:37;2.60;92.20
22173;DHT22;11252;50.596;17.648;2023-02-03T11:35:19;2.80;92.20
22173;DHT22;11252;50.596;17.648;2023-02-03T11:37:53;2.90;92.20
22173;DHT22;11252;50.596;17.648;2023-02-03T11:40:33;3.10;92.20
22173;DHT22;11252;50.596;17.648;2023-02-03T11:43:03;3.10;92.20
22173;DHT22;11252;50.596;17.648;2023-02-03T11:45:46;3.30;92.20
22173;DHT22;11252;50.596;17.648;2023-02-03T11:51:07;3.30;92.20
22173;DHT22;11252;50.596;17.648;2023-02-03T11:53:58;3.40;92.20
22173;DHT22;11252;50.596;17.648;2023-02-03T12:02:30;3.40;92.20
22173;DHT22;11252;50.596;17.648;2023-02-03T12:08:09;3.40;92.20
22173;DHT22;11252;50.596;17.648;2023-02-03T12:11:23;3.40;92.20
22173;DHT22;11252;50.596;17.648;2023-02-03T12:17:22;3.40;92.20
22173;DHT22;11252;50.596;17.648;2023-02-03T12:22:47;3.50;92.20
22173;DHT22;11252;50.596;17.648;2023-02-03T12:25:47;3.50;92.20
22173;DHT22;11252;50.596;17.648;2023-02-03T12:37:06;3.70;92.20
22173;DHT22;11252;50.596;17.648;2023-02-03T12:39:40;3.60;92.20
22173;DHT22;11252;50.596;17.648;2023-02-03T12:42:40;3.70;92.20
22173;DHT22;11252;50.596;17.648;2023-02-03T12:52:56;3.90;92.20
22173;DHT22;11252;50.596;17.648;2023-02-03T12:55:49;3.90;92.20
22173;DHT22;11252;50.596;17.648;2023-02-03T12:58:22;3.80;92.20
22173;DHT22;11252;50.596;17.648;2023-02-03T13:01:04;3.90;92.20
22173;DHT22;11252;50.596;17.648;2023-02-03T13:03:48;3.90;92.20
22173;DHT22;11252;50.596;17.648;2023-02-03T13:06:35;4.00;92.20
22173;DHT22;11252;50.596;17.648;2023-02-03T13:09:43;4.00;92.20
22173;DHT22;11252;50.596;17.648;2023-02-03T13:12:37;3.90;92.20
22173;DHT22;11252;50.596;17.648;2023-02-03T13:15:29;3.90;92.20
22173;DHT22;11252;50.596;17.648;2023-02-03T13:18:34;4.00;92.20
22173;DHT22;11252;50.596;17.648;2023-02-03T13:21:03;4.10;92.20
22173;DHT22;11252;50.596;17.648;2023-02-03T13:23:31;4.10;92.20
22173;DHT22;11252;50.596;17.648;2023-02-03T13:29:38;4.20;92.20
22173;DHT22;11252;50.596;17.648;2023-02-03T13:34:28;4.40;92.20
22173;DHT22;11252;50.596;17.648;2023-02-03T13:37:19;4.40;92.20
22173;DHT22;11252;50.596;17.648;2023-02-03T13:42:55;4.40;92.20
22173;DHT22;11252;50.596;17.648;2023-02-03T13:45:40;4.40;92.20
22173;DHT22;11252;50.596;17.648;2023-02-03T13:48:14;4.50;92.20
22173;DHT22;11252;50.596;17.648;2023-02-03T13:50:43;4.60;92.20
22173;DHT22;11252;50.596;17.648;2023-02-03T13:53:22;4.70;92.20
22173;DHT22;11252;50.596;17.648;2023-02-03T13:55:59;4.60;92.20
22173;DHT22;11252;50.596;17.648;2023-02-03T13:58:28;4.70;92.20
22173;DHT22;11252;50.596;17.648;2023-02-03T14:01:02;4.70;92.20
22173;DHT22;11252;50.596;17.648;2023-02-03T14:05:58;4.80;92.20
22173;DHT22;11252;50.596;17.648;2023-02-03T14:16:39;4.70;92.20
22173;DHT22;11252;50.596;17.648;2023-02-03T14:19:57;4.60;92.20
22173;DHT22;11252;50.596;17.648;2023-02-03T14:22:07;4.60;92.20
22173;DHT22;11252;50.596;17.648;2023-02-03T14:24:43;4.70;92.20
22173;DHT22;11252;50.596;17.648;2023-02-03T14:27:22;4.70;92.20
22173;DHT22;11252;50.596;17.648;2023-02-03T14:30:11;4.70;92.20
22173;DHT22;11252;50.596;17.648;2023-02-03T14:32:59;4.80;92.20
22173;DHT22;11252;50.596;17.648;2023-02-03T14:35:34;4.80;92.20
22173;DHT22;11252;50.596;17.648;2023-02-03T14:38:09;4.80;92.20
22173;DHT22;11252;50.596;17.648;2023-02-03T14:43:50;4.70;92.20
22173;DHT22;11252;50.596;17.648;2023-02-03T14:58:20;4.60;92.20
22173;DHT22;11252;50.596;17.648;2023-02-03T15:00:30;4.50;92.20
22173;DHT22;11252;50.596;17.648;2023-02-03T15:05:45;4.50;92.20
22173;DHT22;11252;50.596;17.648;2023-02-03T15:13:49;4.50;92.20
22173;DHT22;11252;50.596;17.648;2023-02-03T15:16:21;4.60;92.20
22173;DHT22;11252;50.596;17.648;2023-02-03T15:18:58;4.50;92.20
22173;DHT22;11252;50.596;17.648;2023-02-03T15:21:26;4.50;92.20
22173;DHT22;11252;50.596;17.648;2023-02-03T15:23:53;4.50;92.20
22173;DHT22;11252;50.596;17.648;2023-02-03T15:26:23;4.60;92.20
22173;DHT22;11252;50.596;17.648;2023-02-03T15:36:48;4.70;92.20
22173;DHT22;11252;50.596;17.648;2023-02-03T15:41:51;4.80;92.20
22173;DHT22;11252;50.596;17.648;2023-02-03T15:44:29;4.90;92.20
22173;DHT22;11252;50.596;17.648;2023-02-03T15:46:59;4.80;92.20
22173;DHT22;11252;50.596;17.648;2023-02-03T15:49:37;4.70;92.20
22173;DHT22;11252;50.596;17.648;2023-02-03T15:52:16;4.80;92.20
22173;DHT22;11252;50.596;17.648;2023-02-03T15:54:48;4.80;92.20
22173;DHT22;11252;50.596;17.648;2023-02-03T15:57:25;4.80;92.20
22173;DHT22;11252;50.596;17.648;2023-02-03T16:00:00;4.80;92.20
22173;DHT22;11252;50.596;17.648;2023-02-03T16:02:42;4.70;92.20
22173;DHT22;11252;50.596;17.648;2023-02-03T16:05:31;4.60;92.20
22173;DHT22;11252;50.596;17.648;2023-02-03T16:11:23;4.70;92.20
22173;DHT22;11252;50.596;17.648;2023-02-03T16:13:51;4.70;92.20
22173;DHT22;11252;50.596;17.648;2023-02-03T16:19:03;4.70;92.20
22173;DHT22;11252;50.596;17.648;2023-02-03T16:21:34;4.70;92.20
22173;DHT22;11252;50.596;17.648;2023-02-03T16:24:04;4.70;92.20
22173;DHT22;11252;50.596;17.648;2023-02-03T16:26:32;4.70;92.20
22173;DHT22;11252;50.596;17.648;2023-02-03T16:29:11;4.80;92.20
22173;DHT22;11252;50.596;17.648;2023-02-03T16:31:58;4.80;92.20
22173;DHT22;11252;50.596;17.648;2023-02-03T16:34:44;4.80;92.20
22173;DHT22;11252;50.596;17.648;2023-02-03T16:37:40;4.80;92.20
22173;DHT22;11252;50.596;17.648;2023-02-03T16:40:28;4.80;92.20
22173;DHT22;11252;50.596;17.648;2023-02-03T16:43:15;4.80;92.20
22173;DHT22;11252;50.596;17.648;2023-02-03T16:46:00;4.80;92.20
22173;DHT22;11252;50.596;17.648;2023-02-03T16:48:46;4.80;92.20
22173;DHT22;11252;50.596;17.648;2023-02-03T16:51:41;4.80;92.20
22173;DHT22;11252;50.596;17.648;2023-02-03T16:54:10;4.90;92.20
22173;DHT22;11252;50.596;17.648;2023-02-03T16:56:39;4.90;92.20
22173;DHT22;11252;50.596;17.648;2023-02-03T16:59:07;5.00;92.20
22173;DHT22;11252;50.596;17.648;2023-02-03T17:01:34;5.00;92.20
22173;DHT22;11252;50.596;17.648;2023-02-03T17:04:03;5.00;92.20
22173;DHT22;11252;50.596;17.648;2023-02-03T17:06:30;5.00;92.20
22173;DHT22;11252;50.596;17.648;2023-02-03T17:08:59;5.10;92.20
22173;DHT22;11252;50.596;17.648;2023-02-03T17:11:26;5.10;92.20
22173;DHT22;11252;50.596;17.648;2023-02-03T17:13:53;5.20;92.20
22173;DHT22;11252;50.596;17.648;2023-02-03T17:16:24;5.10;92.20
22173;DHT22;11252;50.596;17.648;2023-02-03T17:18:52;5.10;92.20
22173;DHT22;11252;50.596;17.648;2023-02-03T17:21:23;5.00;92.20
22173;DHT22;11252;50.596;17.648;2023-02-03T17:23:51;5.00;92.20
22173;DHT22;11252;50.596;17.648;2023-02-03T17:26:19;5.00;92.20
22173;DHT22;11252;50.596;17.648;2023-02-03T17:28:46;4.90;92.20
22173;DHT22;11252;50.596;17.648;2023-02-03T17:31:16;4.80;92.20
22173;DHT22;11252;50.596;17.648;2023-02-03T17:33:44;4.70;92.20
22173;DHT22;11252;50.596;17.648;2023-02-03T17:36:15;4.70;92.20
22173;DHT22;11252;50.596;17.648;2023-02-03T17:38:51;4.60;92.20
22173;DHT22;11252;50.596;17.648;2023-02-03T17:41:38;4.50;92.20
22173;DHT22;11252;50.596;17.648;2023-02-03T17:44:22;4.50;92.20
22173;DHT22;11252;50.596;17.648;2023-02-03T17:47:07;4.50;92.20
22173;DHT22;11252;50.596;17.648;2023-02-03T17:49:52;4.50;92.20
22173;DHT22;11252;50.596;17.648;2023-02-03T17:52:37;4.40;92.20
22173;DHT22;11252;50.596;17.648;2023-02-03T17:55:22;4.40;92.20
22173;DHT22;11252;50.596;17.648;2023-02-03T17:57:49;4.20;92.20
22173;DHT22;11252;50.596;17.648;2023-02-03T18:00:17;4.20;92.20
22173;DHT22;11252;50.596;17.648;2023-02-03T18:02:48;4.10;92.20
22173;DHT22;11252;50.596;17.648;2023-02-03T18:05:17;4.20;92.20
22173;DHT22;11252;50.596;17.648;2023-02-03T18:07:44;4.20;92.20
22173;DHT22;11252;50.596;17.648;2023-02-03T18:10:11;4.20;92.20
22173;DHT22;11252;50.596;17.648;2023-02-03T18:12:39;4.20;92.20